• Join FlightAware (Why Join?)
  • Login
  • US Flag 
11:39AM EST


 

Airport Tracker/Info


-or-


 

Live Flight TrackerFlight Track Log ✈ TAM3741 ✈ 08-Sep-2013 ✈ SBEG / MAO - SBBE / BEL

Flight Track Log - Related Links

Times and Time Zones

All times are in EDT time to prevent confusion due to time zone crossing. See the TAM3741 flight status page for this flight to view local times or setup timezone preferences in your user account.

Time Position Orientation Groundspeed Altitude Reporting Facility
EDT Latitude Longitude Course Direction KTS MPH feet Rate Location/Type
06:02AM -3.0390 -60.0300 357° North 162 186 900  Level FlightAware
06:02AM -3.0390 -60.0140 90° East 177 204 1,400 1,260 Climbing FlightAware
06:02AM -3.0400 -60.0050 96° East 189 217 1,600 960 Climbing FlightAware
06:03AM -3.0400 -59.9820 90° East 219 252 2,000 1,200 Climbing FlightAware
06:03AM -3.0390 -59.9590 88° East 250 288 2,500 1,680 Climbing FlightAware
06:03AM -3.0370 -59.9450 82° East 258 297 2,900 2,820 Climbing FlightAware
06:04AM -3.0330 -59.9180 82° East 255 293 4,200 3,120 Climbing FlightAware
06:04AM -3.0290 -59.8960 80° East 257 296 5,100 2,820 Climbing FlightAware
06:04AM -3.0250 -59.8720 81° East 262 302 6,000 2,580 Climbing FlightAware
06:05AM -3.0210 -59.8430 82° East 267 307 7,000 2,580 Climbing FlightAware
06:05AM -3.0180 -59.8190 83° East 271 312 7,900 2,520 Climbing FlightAware
06:05AM -3.0140 -59.7930 81° East 277 319 8,700 2,400 Climbing FlightAware
06:06AM -3.0100 -59.7640 82° East 281 323 9,600 1,920 Climbing FlightAware
06:06AM -3.0030 -59.7170 82° East 306 352 10,600 1,680 Climbing FlightAware
06:07AM -2.9960 -59.6670 82° East 327 376 11,600 2,760 Climbing FlightAware
06:07AM -2.9880 -59.6150 81° East 299 344 13,900 3,600 Climbing FlightAware
06:08AM -2.9820 -59.5720 82° East 272 313 15,800 2,460 Climbing FlightAware
06:09AM -2.9760 -59.5260 83° East 286 329 16,700 900 Climbing FlightAware
06:09AM -2.9680 -59.4760 81° East 328 377 16,900 420 Climbing FlightAware
06:10AM -2.9590 -59.4110 82° East 363 418 17,300 780 Climbing FlightAware
06:11AM -2.9460 -59.3280 81° East 350 403 18,200 540 Climbing FlightAware
06:11AM -2.9390 -59.2790 82° East 350 403 18,200  Level FlightAware
06:12AM -2.9310 -59.2300 81° East 350 403 18,200  Level FlightAware
06:13AM -2.9230 -59.1810 81° East 350 403 18,200  Level FlightAware
06:13AM -2.9150 -59.1320 81° East 350 403 18,200  Level FlightAware
06:14AM -2.9080 -59.0830 82° East 350 403 18,200  Level FlightAware
06:16AM -2.8798 -58.8821 82° East  Level Estimated
06:17AM -2.8634 -58.7651 82° East  Level Estimated
06:18AM -2.8476 -58.6527 82° East  Level Estimated
06:19AM -2.8318 -58.5402 82° East  Level Estimated
06:20AM -2.8160 -58.4278 82° East  Level Estimated
06:21AM -2.8002 -58.3154 82° East  Level Estimated
06:22AM -2.7844 -58.2029 82° East  Level Estimated
06:23AM -2.7685 -58.0905 82° East  Level Estimated
06:24AM -2.7527 -57.9781 82° East  Level Estimated
06:25AM -2.7368 -57.8656 82° East  Level Estimated
06:26AM -2.7209 -57.7532 82° East  Level Estimated
06:27AM -2.7050 -57.6408 82° East  Level Estimated
06:28AM -2.6891 -57.5284 82° East  Level Estimated
06:29AM -2.6732 -57.4159 82° East  Level Estimated
06:30AM -2.6573 -57.3035 82° East  Level Estimated
06:31AM -2.6414 -57.1911 82° East  Level Estimated
06:32AM -2.6254 -57.0787 82° East  Level Estimated
06:33AM -2.6095 -56.9663 82° East  Level Estimated
06:34AM -2.5935 -56.8539 82° East  Level Estimated
06:35AM -2.5775 -56.7415 82° East  Level Estimated
06:36AM -2.5615 -56.6291 82° East  Level Estimated
06:37AM -2.5456 -56.5167 82° East  Level Estimated
06:38AM -2.5296 -56.4043 82° East  Level Estimated
06:39AM -2.5136 -56.2919 82° East  Level Estimated
06:40AM -2.4975 -56.1795 82° East  Level Estimated
06:41AM -2.4815 -56.0672 82° East  Level Estimated
06:42AM -2.4655 -55.9548 82° East  Level Estimated
06:43AM -2.4494 -55.8424 82° East  Level Estimated
06:44AM -2.4334 -55.7300 82° East  Level Estimated
06:45AM -2.4173 -55.6176 82° East  Level Estimated
06:46AM -2.4012 -55.5053 82° East  Level Estimated
06:47AM -2.3851 -55.3929 82° East  Level Estimated
06:48AM -2.3690 -55.2805 82° East  Level Estimated
06:49AM -2.3529 -55.1682 82° East  Level Estimated
06:50AM -2.3368 -55.0558 82° East  Level Estimated
06:51AM -2.3207 -54.9435 82° East  Level Estimated
06:52AM -2.3046 -54.8311 82° East  Level Estimated
06:53AM -2.2884 -54.7188 82° East  Level Estimated
06:54AM -2.2723 -54.6064 82° East  Level Estimated
06:55AM -2.2561 -54.4941 82° East  Level Estimated
06:56AM -2.2400 -54.3817 82° East  Level Estimated
06:57AM -2.2238 -54.2694 82° East  Level Estimated
06:58AM -2.2076 -54.1571 82° East  Level Estimated
06:59AM -2.1914 -54.0447 82° East  Level Estimated
07:00AM -2.1752 -53.9324 82° East  Level Estimated
07:01AM -2.1590 -53.8200 82° East  Level Estimated
07:02AM -2.1428 -53.7077 82° East  Level Estimated
07:03AM -2.1266 -53.5954 82° East  Level Estimated
07:04AM -2.1104 -53.4831 82° East  Level Estimated
07:05AM -2.0941 -53.3708 82° East  Level Estimated
07:06AM -2.0779 -53.2584 82° East  Level Estimated
07:07AM -2.0616 -53.1461 82° East  Level Estimated
07:08AM -2.0454 -53.0338 82° East  Level Estimated
07:09AM -2.0291 -52.9215 82° East  Level Estimated
07:10AM -2.0128 -52.8092 82° East  Level Estimated
07:11AM -1.9965 -52.6969 82° East  Level Estimated
07:12AM -1.9802 -52.5845 82° East  Level Estimated
07:13AM -1.9639 -52.4723 82° East  Level Estimated
07:14AM -1.9476 -52.3600 82° East  Level Estimated
07:15AM -1.9313 -52.2477 82° East  Level Estimated
07:16AM -1.9150 -52.1353 82° East  Level Estimated
07:17AM -1.8986 -52.0230 82° East  Level Estimated
07:18AM -1.8823 -51.9108 82° East  Level Estimated
07:19AM -1.8659 -51.7985 82° East  Level Estimated
07:20AM -1.8496 -51.6862 82° East  Level Estimated
07:21AM -1.8332 -51.5739 82° East  Level Estimated
07:22AM -1.8169 -51.4616 82° East  Level Estimated
07:23AM -1.8005 -51.3493 82° East  Level Estimated
07:24AM -1.7841 -51.2370 82° East  Level Estimated
07:25AM -1.7677 -51.1248 82° East  Level Estimated
07:26AM -1.7513 -51.0125 82° East  Level Estimated
07:27AM -1.7349 -50.9002 82° East  Level Estimated
07:28AM -1.7185 -50.7879 82° East  Level Estimated
07:29AM -1.7021 -50.6757 82° East  Level Estimated
07:30AM -1.6857 -50.5634 82° East  Level Estimated
07:31AM -1.6693 -50.4511 82° East  Level Estimated
07:32AM -1.6528 -50.3388 82° East  Level Estimated
07:33AM -1.6364 -50.2266 82° East  Level Estimated
07:34AM -1.6199 -50.1143 82° East  Level Estimated
07:35AM -1.6035 -50.0021 82° East  Level Estimated
07:36AM -1.5870 -49.8898 82° East  Level Estimated
07:37AM -1.5706 -49.7775 82° East  Level Estimated
07:38AM -1.5541 -49.6653 82° East  Level Estimated
07:39AM -1.5376 -49.5531 82° East  Level Estimated
07:40AM -1.5211 -49.4408 82° East  Level Estimated
07:41AM -1.5046 -49.3285 82° East  Level Estimated
07:42AM -1.4881 -49.2163 82° East  Level Estimated
07:43AM -1.4716 -49.1040 82° East  Level Estimated
07:44AM -1.4551 -48.9918 82° East  Level Estimated
07:45AM -1.4386 -48.8796 82° East  Level Estimated
07:46AM -1.4221 -48.7673 82° East  Level Estimated
07:47AM -1.4056 -48.6551 82° East  Level Estimated
07:48AM -1.3891 -48.5429 82° East  Level Estimated
07:49AM -1.3793 -48.4763 82° East  Level Estimated
07:50AM -1.3793 -48.4763 270° West  Level Estimated
07:51AM -1.3793 -48.4763 270° West  Level Estimated
07:52AM -1.3793 -48.4763 270° West  Level Estimated
07:53AM -1.3793 -48.4763 270° West  Level Estimated
07:54AM -1.3793 -48.4763 270° West  Level Estimated
07:55AM -1.3793 -48.4763 270° West  Level Estimated
07:56AM -1.3793 -48.4763 270° West  Level Estimated
07:57AM -1.3793 -48.4763 270° West  Level Estimated
07:58AM -1.3793 -48.4763 270° West  Level Estimated
07:59AM -1.3793 -48.4763 270° West  Level Estimated
08:00AM -1.3793 -48.4763 270° West  Level Estimated